createdAt,value
2023-02-22T00:02:25.487Z,81.23
2023-02-22T00:04:58.065Z,81.35
2023-02-22T00:07:30.314Z,81.32
2023-02-22T00:10:02.697Z,81.30
2023-02-22T00:12:35.561Z,81.40
2023-02-22T00:15:14.371Z,81.43
2023-02-22T00:17:46.806Z,81.40
2023-02-22T00:20:20.663Z,81.20
2023-02-22T00:22:53.510Z,81.13
2023-02-22T00:25:26.845Z,81.33
2023-02-22T00:27:59.207Z,81.43
2023-02-22T00:30:33.843Z,81.50
2023-02-22T00:33:07.204Z,81.57
2023-02-22T00:35:39.758Z,81.46
2023-02-22T00:38:12.797Z,81.40
2023-02-22T00:40:50.860Z,81.45
2023-02-22T00:43:27.032Z,81.71
2023-02-22T00:46:06.843Z,81.88
2023-02-22T00:48:47.784Z,81.80
2023-02-22T00:51:23.229Z,81.85
2023-02-22T00:53:58.487Z,81.73
2023-02-22T00:56:40.001Z,81.76
2023-02-22T00:59:12.552Z,81.78
2023-02-22T01:01:47.109Z,81.84
2023-02-22T01:04:19.594Z,81.72
2023-02-22T01:06:51.974Z,82.00
2023-02-22T01:09:24.654Z,81.82
2023-02-22T01:11:58.277Z,81.90
2023-02-22T01:14:31.311Z,81.77
2023-02-22T01:17:07.037Z,81.94
2023-02-22T01:19:42.603Z,81.79
2023-02-22T01:22:15.331Z,82.02
2023-02-22T01:24:53.449Z,82.12
2023-02-22T01:27:28.195Z,82.08
2023-02-22T01:30:00.789Z,82.07
2023-02-22T01:32:41.583Z,82.15
2023-02-22T01:35:20.745Z,81.95
2023-02-22T01:37:53.062Z,82.05
2023-02-22T01:40:28.354Z,82.35
2023-02-22T01:43:03.186Z,82.33
2023-02-22T01:45:50.994Z,82.42
2023-02-22T01:48:35.782Z,82.56
2023-02-22T01:51:16.133Z,82.44
2023-02-22T01:53:55.305Z,82.49
2023-02-22T01:56:31.488Z,82.44
2023-02-22T01:59:09.964Z,82.51
2023-02-22T02:01:45.613Z,82.52
2023-02-22T02:04:25.680Z,82.56
2023-02-22T02:07:04.503Z,82.51
2023-02-22T02:09:46.085Z,82.54
2023-02-22T02:12:23.739Z,82.40
2023-02-22T02:15:17.614Z,82.56
2023-02-22T02:17:56.674Z,82.60
2023-02-22T02:20:37.491Z,82.85
2023-02-22T02:23:30.082Z,82.81
2023-02-22T02:26:32.418Z,82.90
2023-02-22T02:29:32.042Z,82.75
2023-02-22T02:32:27.772Z,82.77
2023-02-22T02:35:05.657Z,82.67
2023-02-22T02:37:51.178Z,82.61
2023-02-22T02:40:28.343Z,82.86
2023-02-22T02:43:08.260Z,83.12
2023-02-22T02:45:48.978Z,82.99
2023-02-22T02:48:26.916Z,83.03
2023-02-22T02:51:02.261Z,82.95
2023-02-22T02:53:39.591Z,83.08
2023-02-22T02:56:11.880Z,82.86
2023-02-22T02:58:50.308Z,83.29
2023-02-22T03:01:45.144Z,83.28
2023-02-22T03:04:29.287Z,83.46
2023-02-22T03:07:18.457Z,83.47
2023-02-22T03:10:04.257Z,83.41
2023-02-22T03:12:46.943Z,83.26
2023-02-22T03:15:35.150Z,83.23
2023-02-22T03:18:23.007Z,83.44
2023-02-22T03:21:11.951Z,83.39
2023-02-22T03:23:49.949Z,83.55
2023-02-22T03:26:26.340Z,83.51
2023-02-22T03:29:05.372Z,83.44
2023-02-22T03:31:42.705Z,83.46
2023-02-22T03:34:20.470Z,83.35
2023-02-22T03:37:02.215Z,83.49
2023-02-22T03:39:37.659Z,83.53
2023-02-22T03:42:16.933Z,83.69
2023-02-22T03:44:53.495Z,83.68
2023-02-22T03:47:31.888Z,83.48
2023-02-22T03:50:10.716Z,83.92
2023-02-22T03:52:44.226Z,83.99
2023-02-22T03:55:21.671Z,83.74
2023-02-22T03:57:57.801Z,83.75
2023-02-22T04:00:34.097Z,83.66
2023-02-22T04:03:08.854Z,83.62
2023-02-22T04:05:41.305Z,83.63
2023-02-22T04:08:14.340Z,83.85
2023-02-22T04:10:46.973Z,84.04
2023-02-22T04:13:21.675Z,83.74
2023-02-22T04:15:59.948Z,83.71
2023-02-22T04:18:34.819Z,84.00
2023-02-22T04:21:09.199Z,84.00
2023-02-22T04:23:45.988Z,84.10
2023-02-22T04:26:32.144Z,84.32
2023-02-22T04:29:10.363Z,84.27
2023-02-22T04:31:45.203Z,84.05
2023-02-22T04:34:20.685Z,84.22
2023-02-22T04:36:54.357Z,84.31
2023-02-22T04:39:27.320Z,84.17
2023-02-22T04:41:59.822Z,84.11
2023-02-22T04:44:32.198Z,84.35
2023-02-22T04:47:04.695Z,84.52
2023-02-22T04:49:39.307Z,84.76
2023-02-22T04:52:11.946Z,84.74
2023-02-22T04:54:45.578Z,84.73
2023-02-22T04:57:17.918Z,84.46
2023-02-22T04:59:51.255Z,84.40
2023-02-22T05:02:24.273Z,84.37
2023-02-22T05:04:56.658Z,84.55
2023-02-22T05:07:29.086Z,84.49
2023-02-22T05:10:02.788Z,84.55
2023-02-22T05:12:36.154Z,84.49
2023-02-22T05:15:09.804Z,84.43
2023-02-22T05:17:45.530Z,84.75
2023-02-22T05:20:27.865Z,84.64
2023-02-22T05:23:02.058Z,84.63
2023-02-22T05:25:35.165Z,84.53
2023-02-22T05:28:13.041Z,84.66
2023-02-22T05:30:45.547Z,84.48
2023-02-22T05:33:17.992Z,84.45
2023-02-22T05:35:50.527Z,84.99
2023-02-22T05:38:23.694Z,84.82
2023-02-22T05:40:57.003Z,84.92
2023-02-22T05:43:29.363Z,84.95
2023-02-22T05:46:02.566Z,85.07
2023-02-22T05:48:35.080Z,85.06
2023-02-22T05:51:11.680Z,85.19
2023-02-22T05:53:48.278Z,85.00
2023-02-22T05:56:26.478Z,85.27
2023-02-22T05:58:59.840Z,85.39
2023-02-22T06:01:34.547Z,85.55
2023-02-22T06:04:07.871Z,85.64
2023-02-22T06:06:40.067Z,85.66
2023-02-22T06:09:12.330Z,85.60
2023-02-22T06:11:44.542Z,85.79
2023-02-22T06:14:16.845Z,85.87
2023-02-22T06:16:56.475Z,86.04
2023-02-22T06:19:29.004Z,86.09
2023-02-22T06:22:03.040Z,86.25
2023-02-22T06:24:39.387Z,86.43
2023-02-22T06:27:12.103Z,86.18
2023-02-22T06:29:47.752Z,86.17
2023-02-22T06:32:20.115Z,86.33
2023-02-22T06:34:52.597Z,86.56
2023-02-22T06:37:25.464Z,86.55
2023-02-22T06:40:00.756Z,86.40
2023-02-22T06:42:37.023Z,86.60
2023-02-22T06:45:10.857Z,86.67
2023-02-22T06:47:43.867Z,86.28
2023-02-22T06:50:24.766Z,86.69
2023-02-22T06:52:55.701Z,86.69
2023-02-22T06:55:30.567Z,86.38
2023-02-22T06:58:03.358Z,86.45
2023-02-22T07:00:35.902Z,86.49
2023-02-22T07:03:08.272Z,86.51
2023-02-22T07:05:40.886Z,86.43
2023-02-22T07:08:13.757Z,86.40
2023-02-22T07:10:46.042Z,86.30
2023-02-22T07:13:18.395Z,86.47
2023-02-22T07:15:53.299Z,86.43
2023-02-22T07:18:25.878Z,86.42
2023-02-22T07:20:58.664Z,86.36
2023-02-22T07:23:30.945Z,86.17
2023-02-22T07:26:05.359Z,86.03
2023-02-22T07:28:38.127Z,85.66
2023-02-22T07:31:10.356Z,85.90
2023-02-22T07:33:42.956Z,85.97
2023-02-22T07:36:17.998Z,85.97
2023-02-22T07:38:50.405Z,85.64
2023-02-22T07:41:22.960Z,85.70
2023-02-22T07:43:57.478Z,85.63
2023-02-22T07:46:29.913Z,85.62
2023-02-22T07:49:02.646Z,85.40
2023-02-22T07:51:34.828Z,85.19
2023-02-22T07:54:07.386Z,85.15
2023-02-22T07:56:45.060Z,85.05
2023-02-22T07:59:17.633Z,84.90
2023-02-22T08:01:52.102Z,84.93
2023-02-22T08:04:24.529Z,84.76
2023-02-22T08:06:56.710Z,84.89
2023-02-22T08:09:31.653Z,85.11
2023-02-22T08:12:04.108Z,84.99
2023-02-22T08:14:36.405Z,84.72
2023-02-22T08:17:09.615Z,84.82
2023-02-22T08:19:42.274Z,84.64
2023-02-22T08:22:16.980Z,84.18
2023-02-22T08:24:49.299Z,84.15
2023-02-22T08:27:26.483Z,83.92
2023-02-22T08:29:59.276Z,83.79
2023-02-22T08:32:32.056Z,83.63
2023-02-22T08:35:05.099Z,83.16
2023-02-22T08:37:37.299Z,82.94
2023-02-22T08:40:13.331Z,82.99
2023-02-22T08:42:47.044Z,82.39
2023-02-22T08:45:22.131Z,82.09
2023-02-22T08:47:56.137Z,81.15
2023-02-22T08:50:33.016Z,81.07
2023-02-22T08:53:06.509Z,80.32
2023-02-22T08:55:39.942Z,80.08
2023-02-22T08:58:14.018Z,79.74
2023-02-22T09:00:46.574Z,79.13
2023-02-22T09:03:19.368Z,79.14
2023-02-22T09:05:51.944Z,78.66
2023-02-22T09:08:24.401Z,79.10
2023-02-22T09:10:56.709Z,79.32
2023-02-22T09:13:28.903Z,79.03
2023-02-22T09:16:01.549Z,78.57
2023-02-22T09:18:43.736Z,78.18
2023-02-22T09:21:18.050Z,77.71
2023-02-22T09:23:50.916Z,77.44
2023-02-22T09:26:24.736Z,76.61
2023-02-22T09:28:57.345Z,76.76
2023-02-22T09:31:29.990Z,76.76
2023-02-22T09:34:04.232Z,76.44
2023-02-22T09:36:36.708Z,76.42
2023-02-22T09:39:09.484Z,75.31
2023-02-22T09:41:51.395Z,75.00
2023-02-22T09:44:30.210Z,75.27
2023-02-22T09:47:02.667Z,75.14
2023-02-22T09:49:40.215Z,74.80
2023-02-22T09:52:19.844Z,74.03
2023-02-22T09:54:55.619Z,73.99
2023-02-22T09:57:35.252Z,74.03
2023-02-22T10:00:16.951Z,73.41
2023-02-22T10:03:01.773Z,73.68
2023-02-22T10:05:39.904Z,72.85
2023-02-22T10:08:16.279Z,73.22
2023-02-22T10:10:56.280Z,73.84
2023-02-22T10:13:39.356Z,74.32
2023-02-22T10:16:18.181Z,73.72
2023-02-22T10:19:16.799Z,73.42
2023-02-22T10:22:01.639Z,72.65
2023-02-22T10:24:45.591Z,72.50
2023-02-22T10:27:22.240Z,72.54
2023-02-22T10:30:05.523Z,72.55
2023-02-22T10:32:48.063Z,72.25
2023-02-22T10:35:25.735Z,72.34
2023-02-22T10:38:01.124Z,72.08
2023-02-22T10:40:34.228Z,71.87
2023-02-22T10:43:09.117Z,70.60
2023-02-22T10:45:41.717Z,71.37
2023-02-22T10:48:21.798Z,72.34
2023-02-22T10:51:00.238Z,71.95
2023-02-22T10:53:36.407Z,69.42
2023-02-22T10:56:21.416Z,68.00
2023-02-22T10:58:57.642Z,68.77
2023-02-22T11:01:40.891Z,69.12
2023-02-22T11:04:17.000Z,68.92
2023-02-22T11:06:52.214Z,69.14
2023-02-22T11:09:29.090Z,67.49
2023-02-22T11:12:12.927Z,69.42
2023-02-22T11:14:45.097Z,68.89
2023-02-22T11:17:26.244Z,67.47
2023-02-22T11:19:58.767Z,66.29
2023-02-22T11:22:38.786Z,66.01
2023-02-22T11:25:23.719Z,65.56
2023-02-22T11:28:00.031Z,65.22
2023-02-22T11:30:36.865Z,65.64
2023-02-22T11:33:23.938Z,65.71
2023-02-22T11:35:59.377Z,65.32
2023-02-22T11:38:33.525Z,65.69
2023-02-22T11:41:17.537Z,65.60
2023-02-22T11:43:51.863Z,65.63
2023-02-22T11:46:30.318Z,65.07
2023-02-22T11:49:06.414Z,65.08
2023-02-22T11:51:58.970Z,65.60
2023-02-22T11:54:53.762Z,65.49
2023-02-22T11:57:48.861Z,65.10
2023-02-22T12:00:29.117Z,65.22
2023-02-22T12:03:29.609Z,64.98
2023-02-22T12:06:20.280Z,64.04
2023-02-22T12:09:04.678Z,63.57
2023-02-22T12:11:48.237Z,65.69
2023-02-22T12:14:26.705Z,65.13
2023-02-22T12:17:20.595Z,63.40
2023-02-22T12:19:58.830Z,58.50
2023-02-22T12:22:34.797Z,56.84
2023-02-22T12:25:19.544Z,60.24
2023-02-22T12:27:56.980Z,60.93
2023-02-22T12:30:32.504Z,60.04
2023-02-22T12:33:13.342Z,59.87
2023-02-22T12:35:47.083Z,59.65
2023-02-22T12:38:27.906Z,58.50
2023-02-22T12:41:09.895Z,58.54
2023-02-22T12:43:47.703Z,56.88
2023-02-22T12:46:25.725Z,55.74
2023-02-22T12:49:06.256Z,56.51
2023-02-22T12:51:45.280Z,57.54
2023-02-22T12:54:23.133Z,57.99
2023-02-22T12:57:00.732Z,58.26
2023-02-22T12:59:39.236Z,58.41
2023-02-22T13:02:19.632Z,59.10
2023-02-22T13:04:52.798Z,58.77
2023-02-22T13:07:38.864Z,58.95
2023-02-22T13:10:54.798Z,59.19
2023-02-22T13:13:36.742Z,59.26
2023-02-22T13:16:23.177Z,59.03
2023-02-22T13:19:04.605Z,59.74
2023-02-22T13:21:47.674Z,58.43
2023-02-22T13:24:26.236Z,58.77
2023-02-22T13:27:02.941Z,58.53
2023-02-22T13:29:39.878Z,59.04
2023-02-22T13:32:31.052Z,58.73
2023-02-22T13:35:22.119Z,57.91
2023-02-22T13:38:30.450Z,57.17
2023-02-22T13:41:25.485Z,57.02
2023-02-22T13:44:27.074Z,55.84
2023-02-22T13:47:34.898Z,55.48
2023-02-22T13:50:35.732Z,55.23
2023-02-22T13:53:13.638Z,54.33
2023-02-22T13:55:54.378Z,53.56
2023-02-22T13:58:28.709Z,53.15
2023-02-22T14:01:02.962Z,52.51
2023-02-22T14:03:41.919Z,52.35
2023-02-22T14:06:43.115Z,52.71
2023-02-22T14:09:38.953Z,50.44
2023-02-22T14:12:11.491Z,51.57
2023-02-22T14:15:29.075Z,51.85
2023-02-22T14:18:04.177Z,50.85
2023-02-22T14:20:38.294Z,50.68
2023-02-22T14:23:40.986Z,50.50
2023-02-22T14:26:17.604Z,49.86
2023-02-22T14:28:57.737Z,50.30
2023-02-22T14:31:37.492Z,50.64
2023-02-22T14:34:18.458Z,49.89
2023-02-22T14:37:01.446Z,50.52
2023-02-22T14:39:38.463Z,49.58
2023-02-22T14:42:17.871Z,49.26
2023-02-22T14:45:00.819Z,49.43
2023-02-22T14:47:44.232Z,49.57
2023-02-22T14:50:24.850Z,49.57
2023-02-22T14:53:16.542Z,49.39
2023-02-22T14:55:53.236Z,49.43
2023-02-22T14:58:33.120Z,49.59
2023-02-22T15:01:31.249Z,49.71
2023-02-22T15:04:22.833Z,49.68
2023-02-22T15:06:59.891Z,49.74
2023-02-22T15:09:37.583Z,49.55
2023-02-22T15:12:31.404Z,49.90
2023-02-22T15:15:23.240Z,50.38
2023-02-22T15:17:59.870Z,50.30
2023-02-22T15:20:35.798Z,50.27
2023-02-22T15:23:12.041Z,50.61
2023-02-22T15:25:51.054Z,50.72
2023-02-22T15:28:27.292Z,50.94
2023-02-22T15:31:24.184Z,50.99
2023-02-22T15:34:00.018Z,51.34
2023-02-22T15:36:40.239Z,51.23
2023-02-22T15:39:25.693Z,51.48
2023-02-22T15:42:09.751Z,51.59
2023-02-22T15:44:48.949Z,51.57
2023-02-22T15:47:28.324Z,51.88
2023-02-22T15:50:25.143Z,52.00
2023-02-22T15:53:11.811Z,52.30
2023-02-22T15:56:07.191Z,52.43
2023-02-22T15:58:47.592Z,52.62
2023-02-22T16:01:30.336Z,52.79
2023-02-22T16:04:20.268Z,52.90
2023-02-22T16:07:02.621Z,53.10
2023-02-22T16:09:38.510Z,53.29
2023-02-22T16:12:29.499Z,53.50
2023-02-22T16:15:15.826Z,53.76
2023-02-22T16:18:02.162Z,54.06
2023-02-22T16:20:39.718Z,54.29
2023-02-22T16:23:29.645Z,54.28
2023-02-22T16:26:26.609Z,54.42
2023-02-22T16:29:04.981Z,54.98
2023-02-22T16:31:41.441Z,54.99
2023-02-22T16:34:16.652Z,55.18
2023-02-22T16:36:52.805Z,55.21
2023-02-22T16:39:36.409Z,55.38
2023-02-22T16:42:10.611Z,55.48
2023-02-22T16:44:44.416Z,55.54
2023-02-22T16:47:21.996Z,55.76
2023-02-22T16:49:57.231Z,55.84
2023-02-22T16:52:30.592Z,56.15
2023-02-22T16:55:03.199Z,56.32
2023-02-22T16:57:36.032Z,56.66
2023-02-22T17:00:13.184Z,56.96
2023-02-22T17:02:48.271Z,57.01
2023-02-22T17:05:20.844Z,57.16
2023-02-22T17:07:53.805Z,57.49
2023-02-22T17:10:35.966Z,57.81
2023-02-22T17:13:23.812Z,57.77
2023-02-22T17:16:12.603Z,57.95
2023-02-22T17:18:55.678Z,58.50
2023-02-22T17:24:44.440Z,59.30
2023-02-22T17:27:18.717Z,59.62
2023-02-22T17:29:53.377Z,59.84
2023-02-22T17:32:25.697Z,60.12
2023-02-22T17:35:00.563Z,60.01
2023-02-22T17:37:33.994Z,60.55
2023-02-22T17:40:07.003Z,61.51
2023-02-22T17:42:40.258Z,61.82
2023-02-22T17:45:15.405Z,62.05
2023-02-22T17:47:51.238Z,61.89
2023-02-22T17:50:24.681Z,61.73
2023-02-22T17:52:57.034Z,61.83
2023-02-22T17:55:29.558Z,61.88
2023-02-22T17:58:02.196Z,62.04
2023-02-22T18:00:39.034Z,62.30
2023-02-22T18:03:14.229Z,62.63
2023-02-22T18:05:48.847Z,62.97
2023-02-22T18:08:23.747Z,63.17
2023-02-22T18:10:57.500Z,63.30
2023-02-22T18:13:30.359Z,63.51
2023-02-22T18:16:05.815Z,63.55
2023-02-22T18:18:38.584Z,63.71
2023-02-22T18:21:11.096Z,64.06
2023-02-22T18:23:44.949Z,64.21
2023-02-22T18:26:20.158Z,64.61
2023-02-22T18:28:53.655Z,64.73
2023-02-22T18:31:26.956Z,64.77
2023-02-22T18:34:02.227Z,64.90
2023-02-22T18:36:34.658Z,65.02
2023-02-22T18:39:11.721Z,65.48
2023-02-22T18:41:45.905Z,65.71
2023-02-22T18:44:18.792Z,65.90
2023-02-22T18:46:51.333Z,66.26
2023-02-22T18:49:27.126Z,66.55
2023-02-22T18:51:59.706Z,66.78
2023-02-22T18:54:32.213Z,66.83
2023-02-22T18:57:05.568Z,67.47
2023-02-22T18:59:38.502Z,67.66
2023-02-22T19:02:17.481Z,67.54
2023-02-22T19:04:50.105Z,67.52
2023-02-22T19:07:34.325Z,67.44
2023-02-22T19:10:07.624Z,67.59
2023-02-22T19:12:40.316Z,67.83
2023-02-22T19:15:13.422Z,67.85
2023-02-22T19:17:48.732Z,67.88
2023-02-22T19:20:21.384Z,68.50
2023-02-22T19:22:53.865Z,68.77
2023-02-22T19:25:29.149Z,68.78
2023-02-22T19:28:01.672Z,68.83
2023-02-22T19:30:34.269Z,69.01
2023-02-22T19:33:07.130Z,69.25
2023-02-22T19:35:48.181Z,69.19
2023-02-22T19:38:21.008Z,69.33
2023-02-22T19:40:55.602Z,69.33
2023-02-22T19:43:34.594Z,69.39
2023-02-22T19:46:11.716Z,69.53
2023-02-22T19:48:44.602Z,69.80
2023-02-22T19:51:18.588Z,69.84
2023-02-22T19:53:55.524Z,70.16
2023-02-22T19:56:31.472Z,70.36
2023-02-22T19:59:09.651Z,70.67
2023-02-22T20:01:44.857Z,70.54
2023-02-22T20:04:23.091Z,70.77
2023-02-22T20:06:59.079Z,71.15
2023-02-22T20:09:37.893Z,71.30
2023-02-22T20:12:12.928Z,71.33
2023-02-22T20:14:46.460Z,71.23
2023-02-22T20:17:21.381Z,71.42
2023-02-22T20:19:59.306Z,71.75
2023-02-22T20:22:31.751Z,71.72
2023-02-22T20:25:05.368Z,71.59
2023-02-22T20:27:38.882Z,71.66
2023-02-22T20:30:18.158Z,72.24
2023-02-22T20:32:59.950Z,72.60
2023-02-22T20:35:34.130Z,72.68
2023-02-22T20:38:13.937Z,72.65
2023-02-22T20:40:46.957Z,72.57
2023-02-22T20:43:23.185Z,72.93
2023-02-22T20:45:56.393Z,72.96
2023-02-22T20:48:28.982Z,72.95
2023-02-22T20:51:08.341Z,72.74
2023-02-22T20:53:42.108Z,73.19
2023-02-22T20:56:17.948Z,73.12
2023-02-22T20:58:50.463Z,73.32
2023-02-22T21:01:23.897Z,73.21
2023-02-22T21:04:02.432Z,73.13
2023-02-22T21:06:35.695Z,73.29
2023-02-22T21:09:12.840Z,73.50
2023-02-22T21:11:46.731Z,73.56
2023-02-22T21:14:20.217Z,73.68
2023-02-22T21:16:54.040Z,73.67
2023-02-22T21:19:33.406Z,74.03
2023-02-22T21:22:08.503Z,74.29
2023-02-22T21:24:40.901Z,74.49
2023-02-22T21:27:13.299Z,74.53
2023-02-22T21:29:45.689Z,74.66
2023-02-22T21:32:19.319Z,74.71
2023-02-22T21:34:54.318Z,74.88
2023-02-22T21:37:26.653Z,75.10
2023-02-22T21:39:59.273Z,75.00
2023-02-22T21:42:31.677Z,75.25
2023-02-22T21:45:14.209Z,75.42
2023-02-22T21:47:47.510Z,75.43
2023-02-22T21:50:25.552Z,75.53
2023-02-22T21:52:58.120Z,75.83
2023-02-22T21:55:31.089Z,76.17
2023-02-22T21:58:03.668Z,76.00
2023-02-22T22:00:39.277Z,76.12
2023-02-22T22:03:20.591Z,76.41
2023-02-22T22:05:53.256Z,76.46
2023-02-22T22:08:27.948Z,76.56
2023-02-22T22:11:03.542Z,76.85
2023-02-22T22:13:42.072Z,77.10
2023-02-22T22:16:16.523Z,77.20
2023-02-22T22:18:55.706Z,77.11
2023-02-22T22:21:28.896Z,77.31
2023-02-22T22:24:06.609Z,77.31
2023-02-22T22:26:48.555Z,77.32
2023-02-22T22:29:23.688Z,77.76
2023-02-22T22:31:56.415Z,77.59
2023-02-22T22:34:34.118Z,77.80
2023-02-22T22:37:06.664Z,78.10
2023-02-22T22:39:42.601Z,78.03
2023-02-22T22:42:15.507Z,77.88
2023-02-22T22:44:53.849Z,78.23
2023-02-22T22:47:30.800Z,78.51
2023-02-22T22:50:03.327Z,79.24
2023-02-22T22:52:40.268Z,79.41
2023-02-22T22:55:13.155Z,79.85
2023-02-22T22:57:45.523Z,79.93
2023-02-22T23:00:31.612Z,79.93
2023-02-22T23:03:05.809Z,80.88
2023-02-22T23:05:43.496Z,81.10
2023-02-22T23:08:18.855Z,80.70
2023-02-22T23:10:51.698Z,81.77
2023-02-22T23:13:25.595Z,81.26
2023-02-22T23:15:57.948Z,81.73
2023-02-22T23:18:36.434Z,81.93
2023-02-22T23:21:12.960Z,81.18
2023-02-22T23:23:51.780Z,80.77
2023-02-22T23:26:28.576Z,81.34
2023-02-22T23:29:04.770Z,81.35
2023-02-22T23:31:39.956Z,81.42
2023-02-22T23:34:12.752Z,81.16
2023-02-22T23:36:45.358Z,81.64
2023-02-22T23:39:21.704Z,81.94
2023-02-22T23:42:01.177Z,81.78
2023-02-22T23:44:34.208Z,81.73
2023-02-22T23:47:10.684Z,81.94
2023-02-22T23:49:46.017Z,82.48
2023-02-22T23:52:25.038Z,82.08
2023-02-22T23:55:05.618Z,83.07
2023-02-22T23:57:42.973Z,82.97
